Time,TemperatureF,DewpointF,PressureIn,WindDirection,WindDirectionDegrees,WindSpeedMPH,WindSpeedGustMPH,Humidity,HourlyPrecipIn,Conditions,Clouds,dailyrainin,SolarRadiationWatts/m^2,SoftwareType,DateUTC
2013-01-28 00:04:00,52.2,47.2,29.81,SSW,210,3.0,17.0,83,0.00,,,0.00,0,Wunderground v.1.15,2013-01-28 06:04:00,
2013-01-28 00:10:00,51.6,46.6,29.81,SSW,210,3.0,17.0,83,0.00,,,0.00,0,Wunderground v.1.15,2013-01-28 06:10:00,
2013-01-28 00:16:00,51.0,45.7,29.81,SSW,210,3.0,17.0,82,0.00,,,0.00,0,Wunderground v.1.15,2013-01-28 06:16:00,
2013-01-28 00:22:00,50.5,45.2,29.81,SSW,210,3.0,17.0,82,0.00,,,0.00,0,Wunderground v.1.15,2013-01-28 06:22:00,
2013-01-28 00:28:00,50.1,44.8,29.81,SSW,210,2.0,17.0,82,0.00,,,0.00,0,Wunderground v.1.15,2013-01-28 06:28:00,
2013-01-28 00:34:00,49.8,44.8,29.81,SSW,210,2.0,17.0,83,0.00,,,0.00,0,Wunderground v.1.15,2013-01-28 06:34:00,
2013-01-28 00:40:00,49.4,44.5,29.81,SSW,210,2.0,17.0,83,0.00,,,0.00,0,Wunderground v.1.15,2013-01-28 06:40:00,
2013-01-28 00:46:00,49.1,44.5,29.81,SSW,210,2.0,17.0,84,0.00,,,0.00,0,Wunderground v.1.15,2013-01-28 06:46:00,
2013-01-28 00:52:00,48.9,44.3,29.81,SSW,210,2.0,17.0,84,0.00,,,0.00,0,Wunderground v.1.15,2013-01-28 06:52:00,
2013-01-28 00:58:00,48.7,44.1,29.81,SSW,210,2.0,17.0,84,0.00,,,0.00,0,Wunderground v.1.15,2013-01-28 06:58:00,
2013-01-28 01:04:00,48.5,44.2,29.81,SSW,210,2.0,17.0,85,0.00,,,0.00,0,Wunderground v.1.15,2013-01-28 07:04:00,
2013-01-28 01:10:00,48.2,43.9,29.81,SSW,210,1.0,1.0,85,0.00,,,0.00,0,Wunderground v.1.15,2013-01-28 07:10:00,
2013-01-28 01:16:00,47.8,43.2,29.81,SSW,210,0.0,1.0,84,0.00,,,0.00,0,Wunderground v.1.15,2013-01-28 07:16:00,
2013-01-28 01:22:00,47.5,42.9,29.81,SSW,210,1.0,1.0,84,0.00,,,0.00,0,Wunderground v.1.15,2013-01-28 07:22:00,
2013-01-28 01:28:00,47.2,42.9,29.80,SSW,210,1.0,2.0,85,0.00,,,0.00,0,Wunderground v.1.15,2013-01-28 07:28:00,
2013-01-28 01:34:00,47.0,42.7,29.81,SSW,210,2.0,2.0,85,0.00,,,0.00,0,Wunderground v.1.15,2013-01-28 07:34:00,
2013-01-28 01:40:00,46.8,42.5,29.81,SSW,210,2.0,3.0,85,0.00,,,0.00,0,Wunderground v.1.15,2013-01-28 07:40:00,
2013-01-28 01:46:00,46.7,42.4,29.80,SSW,210,3.0,3.0,85,0.00,,,0.00,0,Wunderground v.1.15,2013-01-28 07:46:00,
2013-01-28 01:52:00,46.6,42.6,29.81,SSW,210,4.0,4.0,86,0.00,,,0.00,0,Wunderground v.1.15,2013-01-28 07:52:00,
2013-01-28 01:58:00,47.0,43.3,29.80,SSW,210,4.0,5.0,87,0.00,,,0.00,0,Wunderground v.1.15,2013-01-28 07:58:00,
2013-01-28 02:04:00,47.7,44.3,29.80,SSW,210,4.0,5.0,88,0.00,,,0.00,0,Wunderground v.1.15,2013-01-28 08:04:00,
2013-01-28 02:10:00,48.5,45.4,29.80,SSW,210,4.0,4.0,89,0.00,,,0.00,0,Wunderground v.1.15,2013-01-28 08:10:00,
2013-01-28 02:16:00,49.2,46.1,29.80,SSW,206,4.0,7.0,89,0.00,,,0.00,0,Wunderground v.1.15,2013-01-28 08:16:00,
2013-01-28 02:22:00,49.9,46.8,29.80,SSW,203,5.0,5.0,89,0.00,,,0.00,0,Wunderground v.1.15,2013-01-28 08:22:00,
2013-01-28 02:28:00,50.7,47.6,29.80,SSW,203,5.0,5.0,89,0.00,,,0.00,0,Wunderground v.1.15,2013-01-28 08:28:00,
2013-01-28 02:34:00,51.2,48.1,29.80,SSW,203,4.0,5.0,89,0.00,,,0.00,0,Wunderground v.1.15,2013-01-28 08:34:00,
2013-01-28 02:40:00,51.7,48.6,29.80,SSW,199,4.0,5.0,89,0.00,,,0.00,0,Wunderground v.1.15,2013-01-28 08:40:00,
2013-01-28 02:46:00,52.1,49.0,29.80,SSW,197,5.0,7.0,89,0.00,,,0.00,0,Wunderground v.1.15,2013-01-28 08:46:00,
2013-01-28 02:52:00,52.4,49.3,29.80,SSW,192,5.0,5.0,89,0.00,,,0.00,0,Wunderground v.1.15,2013-01-28 08:52:00,
2013-01-28 02:58:00,52.6,49.4,29.80,South,191,5.0,7.0,89,0.00,,,0.00,0,Wunderground v.1.15,2013-01-28 08:58:00,
2013-01-28 03:04:00,53.0,49.8,29.80,SSW,195,6.0,7.0,89,0.00,,,0.00,0,Wunderground v.1.15,2013-01-28 09:04:00,
2013-01-28 03:10:00,53.2,50.0,29.80,SSW,195,6.0,7.0,89,0.00,,,0.00,0,Wunderground v.1.15,2013-01-28 09:10:00,
2013-01-28 03:16:00,53.4,50.2,29.80,SSW,193,7.0,8.0,89,0.00,,,0.00,0,Wunderground v.1.15,2013-01-28 09:16:00,
2013-01-28 03:22:00,53.5,50.3,29.80,South,191,7.0,7.0,89,0.00,,,0.00,0,Wunderground v.1.15,2013-01-28 09:22:00,
2013-01-28 03:28:00,53.5,50.3,29.80,South,181,7.0,7.0,89,0.00,,,0.00,0,Wunderground v.1.15,2013-01-28 09:28:00,
2013-01-28 03:34:00,53.4,50.2,29.80,South,181,7.0,8.0,89,0.00,,,0.00,0,Wunderground v.1.15,2013-01-28 09:34:00,
2013-01-28 03:40:00,53.3,50.1,29.79,South,177,7.0,8.0,89,0.00,,,0.00,0,Wunderground v.1.15,2013-01-28 09:40:00,
2013-01-28 03:46:00,53.3,50.1,29.79,South,177,7.0,9.0,89,0.00,,,0.00,0,Wunderground v.1.15,2013-01-28 09:46:00,
2013-01-28 03:52:00,53.4,50.2,29.80,South,184,7.0,8.0,89,0.00,,,0.00,0,Wunderground v.1.15,2013-01-28 09:52:00,
2013-01-28 03:58:00,53.5,50.3,29.80,South,191,8.0,8.0,89,0.00,,,0.00,0,Wunderground v.1.15,2013-01-28 09:58:00,
2013-01-28 04:04:00,53.6,50.4,29.80,South,183,8.0,8.0,89,0.00,,,0.00,0,Wunderground v.1.15,2013-01-28 10:04:00,
2013-01-28 04:10:00,53.6,50.4,29.80,South,185,8.0,8.0,89,0.00,,,0.00,0,Wunderground v.1.15,2013-01-28 10:10:00,
2013-01-28 04:16:00,53.5,50.3,29.80,South,175,8.0,9.0,89,0.00,,,0.00,0,Wunderground v.1.15,2013-01-28 10:16:00,
2013-01-28 04:22:00,53.5,50.3,29.80,South,180,8.0,8.0,89,0.00,,,0.00,0,Wunderground v.1.15,2013-01-28 10:22:00,
2013-01-28 04:28:00,53.5,50.3,29.80,South,181,8.0,9.0,89,0.00,,,0.00,0,Wunderground v.1.15,2013-01-28 10:28:00,
2013-01-28 04:34:00,53.6,50.4,29.80,South,183,8.0,9.0,89,0.00,,,0.00,0,Wunderground v.1.15,2013-01-28 10:34:00,
2013-01-28 04:40:00,53.7,50.5,29.80,South,183,7.0,8.0,89,0.00,,,0.00,0,Wunderground v.1.15,2013-01-28 10:40:00,
2013-01-28 04:46:00,53.7,50.5,29.80,South,189,7.0,8.0,89,0.00,,,0.00,0,Wunderground v.1.15,2013-01-28 10:46:00,
2013-01-28 04:52:00,53.7,50.5,29.80,South,187,8.0,8.0,89,0.00,,,0.00,0,Wunderground v.1.15,2013-01-28 10:52:00,
2013-01-28 04:58:00,53.7,50.5,29.80,SSW,194,8.0,8.0,89,0.00,,,0.00,0,Wunderground v.1.15,2013-01-28 10:58:00,
2013-01-28 05:04:00,53.6,50.4,29.80,SSW,198,8.0,10.0,89,0.00,,,0.00,0,Wunderground v.1.15,2013-01-28 11:04:00,
2013-01-28 05:10:00,53.6,50.1,29.80,South,182,8.0,8.0,88,0.00,,,0.00,0,Wunderground v.1.15,2013-01-28 11:10:00,
2013-01-28 05:16:00,53.5,50.0,29.80,SSW,199,8.0,10.0,88,0.00,,,0.00,0,Wunderground v.1.15,2013-01-28 11:16:00,
2013-01-28 05:22:00,53.5,50.0,29.80,SSW,193,7.0,9.0,88,0.00,,,0.00,0,Wunderground v.1.15,2013-01-28 11:22:00,
2013-01-28 05:28:00,53.3,49.8,29.80,South,182,7.0,7.0,88,0.00,,,0.00,0,Wunderground v.1.15,2013-01-28 11:28:00,
2013-01-28 05:34:00,53.2,49.7,29.80,South,180,8.0,10.0,88,0.00,,,0.00,0,Wunderground v.1.15,2013-01-28 11:34:00,
2013-01-28 05:40:00,53.2,49.7,29.80,South,184,8.0,9.0,88,0.00,,,0.00,0,Wunderground v.1.15,2013-01-28 11:40:00,
2013-01-28 05:46:00,53.1,49.6,29.80,SSW,192,8.0,11.0,88,0.00,,,0.00,0,Wunderground v.1.15,2013-01-28 11:46:00,
2013-01-28 05:52:00,53.1,49.6,29.80,SSW,193,8.0,13.0,88,0.00,,,0.00,0,Wunderground v.1.15,2013-01-28 11:52:00,
2013-01-28 05:58:00,53.2,49.7,29.80,South,187,9.0,9.0,88,0.00,,,0.00,0,Wunderground v.1.15,2013-01-28 11:58:00,
2013-01-28 06:04:00,53.1,49.6,29.80,SSW,193,9.0,10.0,88,0.00,,,0.00,0,Wunderground v.1.15,2013-01-28 12:04:00,
2013-01-28 06:10:00,53.1,49.6,29.80,SSW,197,9.0,9.0,88,0.00,,,0.00,0,Wunderground v.1.15,2013-01-28 12:10:00,
2013-01-28 06:16:00,53.1,49.6,29.80,SSW,197,9.0,9.0,88,0.00,,,0.00,0,Wunderground v.1.15,2013-01-28 12:16:00,
2013-01-28 06:22:00,53.0,49.5,29.80,South,179,8.0,10.0,88,0.00,,,0.00,0,Wunderground v.1.15,2013-01-28 12:22:00,
2013-01-28 06:28:00,53.0,49.5,29.80,SSW,193,9.0,9.0,88,0.00,,,0.00,0,Wunderground v.1.15,2013-01-28 12:28:00,
2013-01-28 06:34:00,53.0,49.2,29.81,SSW,193,9.0,11.0,87,0.00,,,0.00,0,Wunderground v.1.15,2013-01-28 12:34:00,
2013-01-28 06:40:00,53.0,49.2,29.81,SSW,201,9.0,10.0,87,0.00,,,0.00,0,Wunderground v.1.15,2013-01-28 12:40:00,
2013-01-28 06:46:00,53.0,49.2,29.81,SSW,197,10.0,11.0,87,0.00,,,0.00,0,Wunderground v.1.15,2013-01-28 12:46:00,
2013-01-28 06:52:00,52.9,49.1,29.82,South,185,10.0,11.0,87,0.00,,,0.00,0,Wunderground v.1.15,2013-01-28 12:52:00,
2013-01-28 06:58:00,52.9,49.1,29.82,South,182,11.0,11.0,87,0.00,,,0.00,0,Wunderground v.1.15,2013-01-28 12:58:00,
2013-01-28 07:04:00,52.8,49.0,29.82,South,181,11.0,11.0,87,0.00,,,0.00,0,Wunderground v.1.15,2013-01-28 13:04:00,
2013-01-28 07:10:00,52.6,48.8,29.82,SSW,195,9.0,9.0,87,0.00,,,0.00,0,Wunderground v.1.15,2013-01-28 13:10:00,
2013-01-28 07:16:00,52.5,48.7,29.83,SSW,200,8.0,11.0,87,0.00,,,0.00,0,Wunderground v.1.15,2013-01-28 13:16:00,
2013-01-28 07:22:00,52.5,48.7,29.83,SSW,196,9.0,9.0,87,0.00,,,0.00,0,Wunderground v.1.15,2013-01-28 13:22:00,
2013-01-28 07:28:00,52.3,48.5,29.83,SSW,195,8.0,8.0,87,0.00,,,0.00,0,Wunderground v.1.15,2013-01-28 13:28:00,
2013-01-28 07:34:00,52.2,48.4,29.83,SSW,209,9.0,9.0,87,0.00,,,0.00,5,Wunderground v.1.15,2013-01-28 13:34:00,
2013-01-28 07:40:00,52.1,48.0,29.83,SSW,193,9.0,12.0,86,0.00,,,0.00,7,Wunderground v.1.15,2013-01-28 13:40:00,
2013-01-28 07:46:00,52.1,48.0,29.83,SSW,192,9.0,12.0,86,0.00,,,0.00,9,Wunderground v.1.15,2013-01-28 13:46:00,
2013-01-28 07:52:00,52.1,48.0,29.83,SSW,192,8.0,11.0,86,0.00,,,0.00,12,Wunderground v.1.15,2013-01-28 13:52:00,
2013-01-28 07:58:00,52.0,47.9,29.83,SSW,205,7.0,8.0,86,0.00,,,0.00,16,Wunderground v.1.15,2013-01-28 13:58:00,
2013-01-28 08:04:00,52.0,47.9,29.83,SSW,198,7.0,11.0,86,0.00,,,0.00,18,Wunderground v.1.15,2013-01-28 14:04:00,
2013-01-28 08:10:00,52.0,47.9,29.83,SSW,195,7.0,8.0,86,0.00,,,0.00,21,Wunderground v.1.15,2013-01-28 14:10:00,
2013-01-28 08:16:00,52.1,48.0,29.84,SSW,199,7.0,8.0,86,0.00,,,0.00,28,Wunderground v.1.15,2013-01-28 14:16:00,
2013-01-28 08:22:00,52.2,48.4,29.84,SSW,193,7.0,7.0,87,0.00,,,0.00,35,Wunderground v.1.15,2013-01-28 14:22:00,
2013-01-28 08:28:00,52.4,48.6,29.83,SSW,196,7.0,7.0,87,0.00,,,0.00,44,Wunderground v.1.15,2013-01-28 14:28:00,
2013-01-28 08:34:00,52.7,48.9,29.84,SSW,195,7.0,11.0,87,0.00,,,0.00,67,Wunderground v.1.15,2013-01-28 14:34:00,
2013-01-28 08:40:00,53.0,49.2,29.84,South,190,7.0,9.0,87,0.00,,,0.00,93,Wunderground v.1.15,2013-01-28 14:40:00,
2013-01-28 08:46:00,53.3,49.2,29.84,SSW,207,10.0,15.0,86,0.00,,,0.00,139,Wunderground v.1.15,2013-01-28 14:46:00,
2013-01-28 08:52:00,53.8,49.7,29.84,SSW,197,11.0,12.0,86,0.00,,,0.00,153,Wunderground v.1.15,2013-01-28 14:52:00,
2013-01-28 08:58:00,54.2,50.1,29.84,SSW,206,10.0,10.0,86,0.00,,,0.00,174,Wunderground v.1.15,2013-01-28 14:58:00,
2013-01-28 09:04:00,54.7,50.3,29.84,South,177,11.0,13.0,85,0.00,,,0.00,211,Wunderground v.1.15,2013-01-28 15:04:00,
2013-01-28 09:10:00,55.3,50.5,29.84,SSW,207,11.0,18.0,84,0.00,,,0.00,195,Wunderground v.1.15,2013-01-28 15:10:00,
2013-01-28 09:16:00,55.8,50.4,29.84,SSW,197,12.0,18.0,82,0.00,,,0.00,206,Wunderground v.1.15,2013-01-28 15:16:00,
2013-01-28 09:22:00,56.2,50.1,29.84,SSW,198,12.0,12.0,80,0.00,,,0.00,220,Wunderground v.1.15,2013-01-28 15:22:00,
2013-01-28 09:28:00,56.8,50.4,29.84,SSW,210,11.0,11.0,79,0.00,,,0.00,241,Wunderground v.1.15,2013-01-28 15:28:00,
2013-01-28 09:34:00,57.3,50.8,29.84,South,181,12.0,12.0,79,0.00,,,0.00,260,Wunderground v.1.15,2013-01-28 15:34:00,
2013-01-28 09:40:00,57.6,50.4,29.84,SSW,197,10.0,14.0,77,0.00,,,0.00,262,Wunderground v.1.15,2013-01-28 15:40:00,
2013-01-28 09:46:00,57.9,50.0,29.84,SSW,193,10.0,14.0,75,0.00,,,0.00,288,Wunderground v.1.15,2013-01-28 15:46:00,
2013-01-28 09:52:00,58.2,50.3,29.84,SSW,193,11.0,15.0,75,0.00,,,0.00,306,Wunderground v.1.15,2013-01-28 15:52:00,
2013-01-28 09:58:00,58.6,50.7,29.84,SSW,203,10.0,10.0,75,0.00,,,0.00,320,Wunderground v.1.15,2013-01-28 15:58:00,
2013-01-28 10:04:00,59.0,50.7,29.84,South,189,9.0,14.0,74,0.00,,,0.00,309,Wunderground v.1.15,2013-01-28 16:04:00,
2013-01-28 10:10:00,59.2,50.5,29.84,South,183,10.0,10.0,73,0.00,,,0.00,260,Wunderground v.1.15,2013-01-28 16:10:00,
2013-01-28 10:16:00,59.3,51.0,29.84,SSW,200,11.0,17.0,74,0.00,,,0.00,269,Wunderground v.1.15,2013-01-28 16:16:00,
2013-01-28 10:22:00,59.4,50.4,29.83,SSW,198,12.0,12.0,72,0.00,,,0.00,269,Wunderground v.1.15,2013-01-28 16:22:00,
2013-01-28 10:28:00,59.9,50.8,29.84,SSW,196,10.0,10.0,72,0.00,,,0.00,355,Wunderground v.1.15,2013-01-28 16:28:00,
2013-01-28 10:36:00,60.6,51.1,29.84,South,179,11.0,15.0,71,0.00,,,0.00,359,Wunderground v.1.15,2013-01-28 16:36:00,
2013-01-28 10:42:00,61.1,51.6,29.84,South,187,12.0,13.0,71,0.00,,,0.00,348,Wunderground v.1.15,2013-01-28 16:42:00,
2013-01-28 10:48:00,61.5,52.0,29.84,SSW,197,10.0,15.0,71,0.00,,,0.00,367,Wunderground v.1.15,2013-01-28 16:48:00,
2013-01-28 10:54:00,61.9,51.6,29.84,SW,224,10.0,15.0,69,0.00,,,0.00,345,Wunderground v.1.15,2013-01-28 16:54:00,
2013-01-28 11:00:00,62.3,52.0,29.85,South,191,11.0,11.0,69,0.00,,,0.00,346,Wunderground v.1.15,2013-01-28 17:00:00,
2013-01-28 11:06:00,62.7,52.4,29.84,South,183,12.0,18.0,69,0.00,,,0.00,374,Wunderground v.1.15,2013-01-28 17:06:00,
2013-01-28 11:12:00,63.3,52.6,29.84,SSW,193,14.0,14.0,68,0.00,,,0.00,431,Wunderground v.1.15,2013-01-28 17:12:00,
2013-01-28 11:18:00,64.3,52.7,29.84,SSW,197,13.0,16.0,66,0.00,,,0.00,476,Wunderground v.1.15,2013-01-28 17:18:00,
2013-01-28 11:24:00,65.0,51.7,29.84,SSW,204,14.0,19.0,62,0.00,,,0.00,490,Wunderground v.1.15,2013-01-28 17:24:00,
2013-01-28 11:30:00,65.3,51.5,29.84,SSW,194,16.0,22.0,61,0.00,,,0.00,427,Wunderground v.1.15,2013-01-28 17:30:00,
2013-01-28 11:36:00,65.8,52.0,29.83,South,191,15.0,16.0,61,0.00,,,0.00,468,Wunderground v.1.15,2013-01-28 17:36:00,
2013-01-28 11:42:00,66.4,52.1,29.83,South,187,12.0,15.0,60,0.00,,,0.00,503,Wunderground v.1.15,2013-01-28 17:42:00,
2013-01-28 11:48:00,67.2,51.9,29.82,SSW,200,11.0,15.0,58,0.00,,,0.00,471,Wunderground v.1.15,2013-01-28 17:48:00,
2013-01-28 11:54:00,67.7,50.9,29.82,South,179,12.0,12.0,55,0.00,,,0.00,497,Wunderground v.1.15,2013-01-28 17:54:00,
2013-01-28 12:00:00,68.3,50.5,29.81,SSW,198,14.0,19.0,53,0.00,,,0.00,445,Wunderground v.1.15,2013-01-28 18:00:00,
2013-01-28 12:06:00,69.2,50.8,29.81,South,179,15.0,19.0,52,0.00,,,0.00,561,Wunderground v.1.15,2013-01-28 18:06:00,
2013-01-28 12:12:00,70.2,51.2,29.80,South,185,15.0,15.0,51,0.00,,,0.00,603,Wunderground v.1.15,2013-01-28 18:12:00,
2013-01-28 12:18:00,70.8,50.7,29.79,SSW,197,15.0,17.0,49,0.00,,,0.00,513,Wunderground v.1.15,2013-01-28 18:18:00,
2013-01-28 12:24:00,70.9,50.8,29.79,South,170,16.0,17.0,49,0.00,,,0.00,555,Wunderground v.1.15,2013-01-28 18:24:00,
2013-01-28 12:30:00,71.0,50.3,29.78,SSE,160,17.0,19.0,48,0.00,,,0.00,438,Wunderground v.1.15,2013-01-28 18:30:00,
2013-01-28 12:36:00,71.3,50.0,29.78,SSW,195,17.0,19.0,47,0.00,,,0.00,483,Wunderground v.1.15,2013-01-28 18:36:00,
2013-01-28 12:42:00,71.7,50.4,29.78,SSW,194,15.0,16.0,47,0.00,,,0.00,496,Wunderground v.1.15,2013-01-28 18:42:00,
2013-01-28 12:48:00,72.2,50.3,29.78,South,170,15.0,15.0,46,0.00,,,0.00,506,Wunderground v.1.15,2013-01-28 18:48:00,
2013-01-28 12:54:00,72.9,50.3,29.77,SSW,199,15.0,17.0,45,0.00,,,0.00,519,Wunderground v.1.15,2013-01-28 18:54:00,
2013-01-28 13:00:00,72.8,49.6,29.77,South,179,15.0,18.0,44,0.00,,,0.00,482,Wunderground v.1.15,2013-01-28 19:00:00,
2013-01-28 13:06:00,72.7,48.9,29.77,SSW,200,17.0,21.0,43,0.00,,,0.00,438,Wunderground v.1.15,2013-01-28 19:06:00,
2013-01-28 13:12:00,73.5,49.6,29.76,SSW,193,16.0,17.0,43,0.00,,,0.00,499,Wunderground v.1.15,2013-01-28 19:12:00,
2013-01-28 13:18:00,73.6,49.7,29.76,South,190,16.0,16.0,43,0.00,,,0.00,387,Wunderground v.1.15,2013-01-28 19:18:00,
2013-01-28 13:24:00,73.3,50.1,29.76,SSW,195,16.0,17.0,44,0.00,,,0.00,466,Wunderground v.1.15,2013-01-28 19:24:00,
2013-01-28 13:30:00,73.8,49.3,29.76,South,190,17.0,26.0,42,0.00,,,0.00,468,Wunderground v.1.15,2013-01-28 19:30:00,
2013-01-28 13:36:00,74.1,50.2,29.75,South,191,19.0,29.0,43,0.00,,,0.00,376,Wunderground v.1.15,2013-01-28 19:36:00,
2013-01-28 13:42:00,74.5,55.2,29.75,South,173,19.0,27.0,51,0.00,,,0.00,490,Wunderground v.1.15,2013-01-28 19:42:00,
2013-01-28 13:48:00,74.2,56.5,29.75,South,177,19.0,19.0,54,0.00,,,0.00,248,Wunderground v.1.15,2013-01-28 19:48:00,
2013-01-28 13:54:00,73.5,56.8,29.75,South,184,19.0,28.0,56,0.00,,,0.00,269,Wunderground v.1.15,2013-01-28 19:54:00,
2013-01-28 14:00:00,72.9,57.7,29.74,SSW,192,19.0,20.0,59,0.00,,,0.00,236,Wunderground v.1.15,2013-01-28 20:00:00,
2013-01-28 14:06:00,72.9,58.2,29.74,South,182,17.0,20.0,60,0.00,,,0.00,265,Wunderground v.1.15,2013-01-28 20:06:00,
2013-01-28 14:12:00,73.1,58.4,29.74,SSW,202,16.0,26.0,60,0.00,,,0.00,264,Wunderground v.1.15,2013-01-28 20:12:00,
2013-01-28 14:18:00,73.4,58.2,29.74,SSW,202,20.0,31.0,59,0.00,,,0.00,302,Wunderground v.1.15,2013-01-28 20:18:00,
2013-01-28 14:24:00,73.8,58.1,29.73,South,174,22.0,35.0,58,0.00,,,0.00,241,Wunderground v.1.15,2013-01-28 20:24:00,
2013-01-28 14:30:00,73.9,58.2,29.73,SW,222,20.0,22.0,58,0.00,,,0.00,227,Wunderground v.1.15,2013-01-28 20:30:00,
2013-01-28 14:36:00,73.3,57.6,29.72,South,187,19.0,25.0,58,0.00,,,0.00,267,Wunderground v.1.15,2013-01-28 20:36:00,
2013-01-28 14:42:00,73.9,58.2,29.72,South,189,19.0,25.0,58,0.00,,,0.00,251,Wunderground v.1.15,2013-01-28 20:42:00,
2013-01-28 14:48:00,74.2,58.0,29.72,South,179,19.0,19.0,57,0.00,,,0.00,220,Wunderground v.1.15,2013-01-28 20:48:00,
2013-01-28 14:54:00,74.1,57.9,29.71,SSW,192,20.0,33.0,57,0.00,,,0.00,195,Wunderground v.1.15,2013-01-28 20:54:00,
2013-01-28 15:00:00,74.0,57.8,29.71,South,183,21.0,36.0,57,0.00,,,0.00,202,Wunderground v.1.15,2013-01-28 21:00:00,
2013-01-28 15:06:00,74.3,58.1,29.71,South,177,20.0,36.0,57,0.00,,,0.00,179,Wunderground v.1.15,2013-01-28 21:06:00,
2013-01-28 15:14:00,74.2,58.0,29.71,South,181,20.0,22.0,57,0.00,,,0.00,162,Wunderground v.1.15,2013-01-28 21:14:00,
2013-01-28 15:20:00,74.0,58.3,29.71,South,186,17.0,21.0,58,0.00,,,0.00,155,Wunderground v.1.15,2013-01-28 21:20:00,
2013-01-28 15:26:00,73.7,58.0,29.71,SW,220,16.0,22.0,58,0.00,,,0.00,160,Wunderground v.1.15,2013-01-28 21:26:00,
2013-01-28 15:32:00,73.5,58.3,29.71,South,172,21.0,21.0,59,0.00,,,0.00,139,Wunderground v.1.15,2013-01-28 21:32:00,
2013-01-28 15:38:00,73.2,58.0,29.71,SSW,192,22.0,27.0,59,0.00,,,0.00,116,Wunderground v.1.15,2013-01-28 21:38:00,
2013-01-28 15:44:00,72.9,57.7,29.71,South,182,23.0,27.0,59,0.00,,,0.00,111,Wunderground v.1.15,2013-01-28 21:44:00,
2013-01-28 15:50:00,72.7,58.0,29.71,South,187,21.0,24.0,60,0.00,,,0.00,118,Wunderground v.1.15,2013-01-28 21:50:00,
2013-01-28 15:56:00,72.8,58.1,29.70,South,183,21.0,24.0,60,0.00,,,0.00,185,Wunderground v.1.15,2013-01-28 21:56:00,
2013-01-28 16:02:00,73.3,58.1,29.70,South,180,22.0,22.0,59,0.00,,,0.00,181,Wunderground v.1.15,2013-01-28 22:02:00,
2013-01-28 16:08:00,73.3,58.1,29.70,South,190,21.0,21.0,59,0.00,,,0.00,216,Wunderground v.1.15,2013-01-28 22:08:00,
2013-01-28 16:14:00,73.3,58.6,29.70,SSW,192,19.0,24.0,60,0.00,,,0.00,221,Wunderground v.1.15,2013-01-28 22:14:00,
2013-01-28 16:20:00,73.2,58.0,29.69,South,187,16.0,18.0,59,0.00,,,0.00,104,Wunderground v.1.15,2013-01-28 22:20:00,
2013-01-28 16:26:00,72.8,58.1,29.69,SSW,202,16.0,22.0,60,0.00,,,0.00,98,Wunderground v.1.15,2013-01-28 22:26:00,
2013-01-28 16:32:00,72.4,58.2,29.69,South,177,17.0,20.0,61,0.00,,,0.00,114,Wunderground v.1.15,2013-01-28 22:32:00,
2013-01-28 16:38:00,72.4,58.6,29.69,South,185,18.0,24.0,62,0.00,,,0.00,109,Wunderground v.1.15,2013-01-28 22:38:00,
2013-01-28 16:44:00,72.5,58.7,29.68,South,170,17.0,26.0,62,0.00,,,0.00,84,Wunderground v.1.15,2013-01-28 22:44:00,
2013-01-28 16:50:00,72.4,58.6,29.68,SSE,166,17.0,22.0,62,0.00,,,0.00,72,Wunderground v.1.15,2013-01-28 22:50:00,
2013-01-28 16:56:00,72.1,58.4,29.68,SSW,195,18.0,22.0,62,0.00,,,0.00,58,Wunderground v.1.15,2013-01-28 22:56:00,
2013-01-28 17:02:00,71.9,58.6,29.68,South,181,17.0,21.0,63,0.00,,,0.00,58,Wunderground v.1.15,2013-01-28 23:02:00,
2013-01-28 17:08:00,71.7,58.0,29.68,South,185,16.0,17.0,62,0.00,,,0.00,54,Wunderground v.1.15,2013-01-28 23:08:00,
2013-01-28 17:14:00,71.6,57.9,29.68,South,183,17.0,26.0,62,0.00,,,0.00,53,Wunderground v.1.15,2013-01-28 23:14:00,
2013-01-28 17:20:00,71.5,57.8,29.68,South,176,17.0,21.0,62,0.00,,,0.00,39,Wunderground v.1.15,2013-01-28 23:20:00,
2013-01-28 17:26:00,71.2,57.5,29.68,SW,224,16.0,21.0,62,0.00,,,0.00,26,Wunderground v.1.15,2013-01-28 23:26:00,
2013-01-28 17:32:00,71.0,57.3,29.68,South,172,16.0,17.0,62,0.00,,,0.00,21,Wunderground v.1.15,2013-01-28 23:32:00,
2013-01-28 17:38:00,70.8,57.6,29.68,SSW,200,15.0,15.0,63,0.00,,,0.00,12,Wunderground v.1.15,2013-01-28 23:38:00,
2013-01-28 17:44:00,70.5,57.7,29.68,South,181,16.0,17.0,64,0.00,,,0.00,7,Wunderground v.1.15,2013-01-28 23:44:00,
2013-01-28 17:50:00,70.2,57.4,29.68,SSW,193,16.0,21.0,64,0.00,,,0.00,0,Wunderground v.1.15,2013-01-28 23:50:00,
2013-01-28 17:56:00,69.8,57.5,29.68,South,178,15.0,21.0,65,0.00,,,0.00,0,Wunderground v.1.15,2013-01-28 23:56:00,
2013-01-28 18:02:00,69.7,57.8,29.68,SSW,208,16.0,20.0,66,0.00,,,0.00,0,Wunderground v.1.15,2013-01-29 00:02:00,
2013-01-28 18:08:00,69.5,57.6,29.69,SSE,166,16.0,16.0,66,0.00,,,0.00,0,Wunderground v.1.15,2013-01-29 00:08:00,
2013-01-28 18:14:00,69.3,57.5,29.69,South,183,15.0,17.0,66,0.00,,,0.00,0,Wunderground v.1.15,2013-01-29 00:14:00,
2013-01-28 18:20:00,68.9,57.5,29.69,South,184,13.0,20.0,67,0.00,,,0.00,0,Wunderground v.1.15,2013-01-29 00:20:00,
2013-01-28 18:26:00,68.6,57.6,29.69,South,189,13.0,20.0,68,0.00,,,0.00,0,Wunderground v.1.15,2013-01-29 00:26:00,
2013-01-28 18:32:00,68.5,57.5,29.70,South,184,13.0,14.0,68,0.00,,,0.00,0,Wunderground v.1.15,2013-01-29 00:32:00,
2013-01-28 18:38:00,68.3,57.3,29.69,South,176,12.0,15.0,68,0.00,,,0.00,0,Wunderground v.1.15,2013-01-29 00:38:00,
2013-01-28 18:44:00,68.3,57.7,29.69,South,189,13.0,16.0,69,0.00,,,0.00,0,Wunderground v.1.15,2013-01-29 00:44:00,
2013-01-28 18:50:00,68.4,57.8,29.69,SSW,197,15.0,18.0,69,0.00,,,0.00,0,Wunderground v.1.15,2013-01-29 00:50:00,
2013-01-28 18:56:00,68.4,57.8,29.70,SSW,197,16.0,27.0,69,0.00,,,0.00,0,Wunderground v.1.15,2013-01-29 00:56:00,
2013-01-28 19:02:00,68.5,57.9,29.70,SSW,200,16.0,18.0,69,0.00,,,0.00,0,Wunderground v.1.15,2013-01-29 01:02:00,
2013-01-28 19:08:00,68.1,57.5,29.70,SSE,168,15.0,15.0,69,0.00,,,0.00,0,Wunderground v.1.15,2013-01-29 01:08:00,
2013-01-28 19:14:00,67.8,57.7,29.70,South,175,13.0,16.0,70,0.00,,,0.00,0,Wunderground v.1.15,2013-01-29 01:14:00,
2013-01-28 19:20:00,67.6,57.5,29.70,South,179,13.0,20.0,70,0.00,,,0.00,0,Wunderground v.1.15,2013-01-29 01:20:00,
2013-01-28 19:26:00,67.6,57.9,29.69,South,181,13.0,20.0,71,0.00,,,0.00,0,Wunderground v.1.15,2013-01-29 01:26:00,
2013-01-28 19:32:00,67.6,57.9,29.69,South,181,13.0,16.0,71,0.00,,,0.00,0,Wunderground v.1.15,2013-01-29 01:32:00,
2013-01-28 19:38:00,67.5,57.8,29.70,South,180,14.0,14.0,71,0.00,,,0.00,0,Wunderground v.1.15,2013-01-29 01:38:00,
2013-01-28 19:44:00,67.4,57.7,29.70,SSE,168,13.0,14.0,71,0.00,,,0.00,0,Wunderground v.1.15,2013-01-29 01:44:00,
2013-01-28 19:50:00,67.3,58.0,29.70,South,179,12.0,15.0,72,0.00,,,0.00,0,Wunderground v.1.15,2013-01-29 01:50:00,
2013-01-28 19:56:00,67.1,57.8,29.70,SSE,168,12.0,15.0,72,0.00,,,0.00,0,Wunderground v.1.15,2013-01-29 01:56:00,
2013-01-28 20:02:00,66.9,57.6,29.69,SSE,162,12.0,14.0,72,0.00,,,0.00,0,Wunderground v.1.15,2013-01-29 02:02:00,
2013-01-28 20:08:00,66.6,57.7,29.69,South,191,11.0,11.0,73,0.00,,,0.00,0,Wunderground v.1.15,2013-01-29 02:08:00,
2013-01-28 20:14:00,66.5,58.0,29.69,South,176,11.0,14.0,74,0.00,,,0.00,0,Wunderground v.1.15,2013-01-29 02:14:00,
2013-01-28 20:20:00,66.7,58.1,29.69,South,179,11.0,11.0,74,0.00,,,0.00,0,Wunderground v.1.15,2013-01-29 02:20:00,
2013-01-28 20:26:00,66.7,58.5,29.69,SSE,164,12.0,12.0,75,0.00,,,0.00,0,Wunderground v.1.15,2013-01-29 02:26:00,
2013-01-28 20:32:00,66.7,58.1,29.69,South,175,12.0,12.0,74,0.00,,,0.00,0,Wunderground v.1.15,2013-01-29 02:32:00,
2013-01-28 20:38:00,66.6,58.4,29.69,South,183,12.0,12.0,75,0.00,,,0.00,0,Wunderground v.1.15,2013-01-29 02:38:00,
2013-01-28 20:44:00,66.6,58.4,29.69,SSE,160,13.0,18.0,75,0.00,,,0.00,0,Wunderground v.1.15,2013-01-29 02:44:00,
2013-01-28 20:50:00,66.8,58.6,29.69,South,181,14.0,16.0,75,0.00,,,0.00,0,Wunderground v.1.15,2013-01-29 02:50:00,
2013-01-28 20:56:00,66.9,58.7,29.69,SSE,168,15.0,20.0,75,0.00,,,0.00,0,Wunderground v.1.15,2013-01-29 02:56:00,
2013-01-28 21:02:00,66.8,58.6,29.69,South,180,15.0,16.0,75,0.00,,,0.00,0,Wunderground v.1.15,2013-01-29 03:02:00,
2013-01-28 21:08:00,66.6,58.4,29.68,SSE,168,15.0,15.0,75,0.00,,,0.00,0,Wunderground v.1.15,2013-01-29 03:08:00,
2013-01-28 21:14:00,66.4,58.6,29.68,SSE,152,15.0,18.0,76,0.00,,,0.00,0,Wunderground v.1.15,2013-01-29 03:14:00,
2013-01-28 21:20:00,66.4,58.6,29.68,SSE,162,15.0,16.0,76,0.00,,,0.00,0,Wunderground v.1.15,2013-01-29 03:20:00,
2013-01-28 21:26:00,66.3,58.9,29.68,South,171,15.0,23.0,77,0.00,,,0.00,0,Wunderground v.1.15,2013-01-29 03:26:00,
2013-01-28 21:32:00,66.3,58.9,29.68,SSE,162,15.0,20.0,77,0.00,,,0.00,0,Wunderground v.1.15,2013-01-29 03:32:00,
2013-01-28 21:38:00,66.3,58.9,29.68,South,174,16.0,16.0,77,0.00,,,0.00,0,Wunderground v.1.15,2013-01-29 03:38:00,
2013-01-28 21:44:00,66.5,59.4,29.68,South,179,18.0,25.0,78,0.00,,,0.00,0,Wunderground v.1.15,2013-01-29 03:44:00,
2013-01-28 21:50:00,66.5,59.1,29.68,South,176,18.0,19.0,77,0.00,,,0.00,0,Wunderground v.1.15,2013-01-29 03:50:00,
2013-01-28 21:56:00,66.4,59.3,29.68,SSE,153,19.0,24.0,78,0.00,,,0.00,0,Wunderground v.1.15,2013-01-29 03:56:00,
2013-01-28 22:02:00,66.3,59.2,29.67,South,169,18.0,19.0,78,0.00,,,0.00,0,Wunderground v.1.15,2013-01-29 04:02:00,
2013-01-28 22:08:00,66.3,59.6,29.67,South,177,18.0,18.0,79,0.00,,,0.00,0,Wunderground v.1.15,2013-01-29 04:08:00,
2013-01-28 22:14:00,66.3,59.6,29.67,SE,144,17.0,19.0,79,0.00,,,0.00,0,Wunderground v.1.15,2013-01-29 04:14:00,
2013-01-28 22:20:00,66.2,59.5,29.67,SSE,163,17.0,19.0,79,0.00,,,0.00,0,Wunderground v.1.15,2013-01-29 04:20:00,
2013-01-28 22:26:00,66.2,59.5,29.67,South,179,18.0,19.0,79,0.00,,,0.00,0,Wunderground v.1.15,2013-01-29 04:26:00,
2013-01-28 22:32:00,66.2,59.5,29.66,South,174,17.0,17.0,79,0.00,,,0.00,0,Wunderground v.1.15,2013-01-29 04:32:00,
2013-01-28 22:38:00,66.2,59.8,29.66,South,171,16.0,19.0,80,0.00,,,0.00,0,Wunderground v.1.15,2013-01-29 04:38:00,
2013-01-28 22:44:00,66.3,59.9,29.66,South,181,16.0,19.0,80,0.00,,,0.00,0,Wunderground v.1.15,2013-01-29 04:44:00,
2013-01-28 22:50:00,66.3,59.9,29.66,SSE,154,16.0,22.0,80,0.00,,,0.00,0,Wunderground v.1.15,2013-01-29 04:50:00,
2013-01-28 22:56:00,66.3,59.9,29.66,SSE,168,16.0,22.0,80,0.00,,,0.00,0,Wunderground v.1.15,2013-01-29 04:56:00,
2013-01-28 23:00:00,66.2,59.8,29.67,SSE,164,16.0,16.0,80,0.00,,,0.00,0,Wunderground v.1.15,2013-01-29 05:00:00,
2013-01-28 23:04:00,66.1,59.7,29.67,South,175,15.0,16.0,80,0.00,,,0.00,0,Wunderground v.1.15,2013-01-29 05:04:00,
2013-01-28 23:10:00,66.0,59.7,29.67,South,177,14.0,14.0,80,0.00,,,0.00,0,Wunderground v.1.15,2013-01-29 05:10:00,
2013-01-28 23:12:00,66.0,59.7,29.67,South,176,13.0,16.0,80,0.00,,,0.00,0,Wunderground v.1.15,2013-01-29 05:12:00,
2013-01-28 23:18:00,65.9,59.6,29.68,South,183,12.0,12.0,80,0.00,,,0.00,0,Wunderground v.1.15,2013-01-29 05:18:00,
2013-01-28 23:24:00,65.9,59.6,29.68,South,181,12.0,13.0,80,0.00,,,0.00,0,Wunderground v.1.15,2013-01-29 05:24:00,
2013-01-28 23:30:00,65.9,59.6,29.68,South,187,12.0,17.0,80,0.00,,,0.00,0,Wunderground v.1.15,2013-01-29 05:30:00,
2013-01-28 23:36:00,66.0,59.7,29.68,SSW,202,11.0,17.0,80,0.00,,,0.00,0,Wunderground v.1.15,2013-01-29 05:36:00,
2013-01-28 23:42:00,66.0,59.7,29.68,SSW,207,12.0,19.0,80,0.00,,,0.00,0,Wunderground v.1.15,2013-01-29 05:42:00,
2013-01-28 23:48:00,65.9,59.6,29.68,South,181,13.0,13.0,80,0.00,,,0.00,0,Wunderground v.1.15,2013-01-29 05:48:00,
2013-01-28 23:54:00,65.8,59.5,29.68,South,186,12.0,13.0,80,0.00,,,0.00,0,Wunderground v.1.15,2013-01-29 05:54:00,